createdAt,value
2023-07-19T00:00:29.619Z,574.00
2023-07-19T00:01:29.733Z,576.00
2023-07-19T00:02:29.788Z,574.00
2023-07-19T00:03:29.798Z,572.00
2023-07-19T00:04:29.861Z,569.00
2023-07-19T00:05:29.930Z,569.00
2023-07-19T00:06:29.940Z,569.00
2023-07-19T00:07:30.039Z,571.00
2023-07-19T00:08:30.066Z,571.00
2023-07-19T00:09:30.125Z,568.00
2023-07-19T00:10:30.170Z,566.00
2023-07-19T00:11:30.241Z,567.00
2023-07-19T00:12:36.401Z,566.00
2023-07-19T00:13:31.276Z,566.00
2023-07-19T00:14:30.255Z,565.00
2023-07-19T00:15:30.267Z,564.00
2023-07-19T00:16:30.279Z,565.00
2023-07-19T00:17:30.244Z,567.00
2023-07-19T00:18:30.244Z,568.00
2023-07-19T00:19:30.230Z,569.00
2023-07-19T00:20:30.258Z,567.00
2023-07-19T00:21:30.322Z,566.00
2023-07-19T00:22:30.263Z,568.00
2023-07-19T00:23:30.175Z,570.00
2023-07-19T00:24:30.215Z,569.00
2023-07-19T00:25:30.296Z,570.00
2023-07-19T00:26:30.305Z,570.00
2023-07-19T00:27:30.367Z,571.00
2023-07-19T00:28:30.408Z,572.00
2023-07-19T00:29:30.473Z,572.00
2023-07-19T00:30:30.506Z,570.00
2023-07-19T00:31:30.539Z,569.00
2023-07-19T00:32:30.626Z,569.00
2023-07-19T00:33:30.633Z,570.00
2023-07-19T00:34:30.747Z,571.00
2023-07-19T00:35:30.745Z,572.00
2023-07-19T00:36:30.776Z,570.00
2023-07-19T00:37:30.857Z,567.00
2023-07-19T00:38:30.898Z,567.00
2023-07-19T00:39:30.926Z,567.00
2023-07-19T00:40:30.964Z,567.00
2023-07-19T00:41:31.032Z,568.00
2023-07-19T00:42:31.064Z,569.00
2023-07-19T00:43:31.149Z,567.00
2023-07-19T00:44:31.170Z,566.00
2023-07-19T00:45:31.238Z,568.00
2023-07-19T00:46:31.360Z,568.00
2023-07-19T00:47:31.388Z,567.00
2023-07-19T00:48:31.382Z,568.00
2023-07-19T00:49:31.411Z,569.00
2023-07-19T00:50:31.455Z,570.00
2023-07-19T00:51:31.545Z,569.00
2023-07-19T00:52:31.556Z,569.00
2023-07-19T00:53:31.616Z,569.00
2023-07-19T00:54:31.654Z,572.00
2023-07-19T00:55:31.689Z,570.00
2023-07-19T00:56:31.751Z,569.00
2023-07-19T00:57:31.802Z,568.00
2023-07-19T00:58:31.841Z,568.00
2023-07-19T00:59:31.902Z,568.00
2023-07-19T01:00:31.983Z,568.00
2023-07-19T01:01:32.064Z,570.00
2023-07-19T01:02:32.106Z,570.00
2023-07-19T01:03:32.109Z,570.00
2023-07-19T01:04:32.157Z,571.00
2023-07-19T01:05:32.210Z,570.00
2023-07-19T01:06:32.261Z,570.00
2023-07-19T01:07:32.287Z,571.00
2023-07-19T01:08:32.410Z,572.00
2023-07-19T01:09:32.407Z,571.00
2023-07-19T01:10:32.451Z,569.00
2023-07-19T01:11:32.499Z,571.00
2023-07-19T01:12:32.519Z,572.00
2023-07-19T01:13:32.605Z,573.00
2023-07-19T01:14:32.627Z,571.00
2023-07-19T01:15:32.664Z,571.00
2023-07-19T01:16:32.766Z,573.00
2023-07-19T01:17:32.796Z,571.00
2023-07-19T01:18:32.844Z,572.00
2023-07-19T01:19:32.915Z,571.00
2023-07-19T01:20:32.944Z,569.00
2023-07-19T01:21:33.310Z,569.00
2023-07-19T01:22:33.089Z,568.00
2023-07-19T01:23:33.107Z,567.00
2023-07-19T01:24:33.140Z,567.00
2023-07-19T01:25:33.186Z,569.00
2023-07-19T01:26:33.243Z,570.00
2023-07-19T01:27:33.291Z,571.00
2023-07-19T01:28:33.340Z,573.00
2023-07-19T01:29:33.406Z,574.00
2023-07-19T01:30:33.443Z,573.00
2023-07-19T01:31:33.540Z,571.00
2023-07-19T01:32:33.581Z,571.00
2023-07-19T01:33:34.507Z,572.00
2023-07-19T01:34:33.624Z,572.00
2023-07-19T01:35:33.701Z,575.00
2023-07-19T01:36:33.759Z,575.00
2023-07-19T01:37:33.783Z,575.00
2023-07-19T01:38:33.850Z,575.00
2023-07-19T01:39:33.887Z,573.00
2023-07-19T01:40:33.944Z,575.00
2023-07-19T01:41:33.981Z,576.00
2023-07-19T01:42:34.095Z,577.00
2023-07-19T01:43:34.118Z,575.00
2023-07-19T01:44:34.194Z,575.00
2023-07-19T01:45:34.257Z,577.00
2023-07-19T01:46:34.283Z,577.00
2023-07-19T01:47:34.417Z,577.00
2023-07-19T01:48:34.414Z,577.00
2023-07-19T01:49:34.442Z,579.00
2023-07-19T01:50:34.463Z,579.00
2023-07-19T01:51:34.534Z,579.00
2023-07-19T01:52:34.593Z,580.00
2023-07-19T01:53:34.708Z,579.00
2023-07-19T01:54:34.706Z,577.00
2023-07-19T01:55:34.761Z,574.00
2023-07-19T01:56:34.808Z,577.00
2023-07-19T01:57:34.840Z,576.00
2023-07-19T01:58:34.889Z,576.00
2023-07-19T01:59:34.950Z,576.00
2023-07-19T02:00:35.040Z,578.00
2023-07-19T02:01:35.164Z,578.00
2023-07-19T02:02:35.314Z,579.00
2023-07-19T02:03:35.219Z,578.00
2023-07-19T02:04:35.365Z,577.00
2023-07-19T02:05:35.358Z,577.00
2023-07-19T02:06:35.329Z,578.00
2023-07-19T02:07:35.376Z,578.00
2023-07-19T02:08:35.434Z,578.00
2023-07-19T02:09:35.541Z,576.00
2023-07-19T02:10:35.522Z,573.00
2023-07-19T02:11:35.701Z,573.00
2023-07-19T02:12:35.665Z,575.00
2023-07-19T02:13:35.704Z,574.00
2023-07-19T02:14:35.783Z,574.00
2023-07-19T02:15:35.860Z,575.00
2023-07-19T02:16:35.887Z,575.00
2023-07-19T02:17:36.016Z,573.00
2023-07-19T02:18:35.968Z,572.00
2023-07-19T02:19:36.053Z,571.00
2023-07-19T02:20:36.103Z,571.00
2023-07-19T02:21:36.146Z,571.00
2023-07-19T02:22:36.332Z,571.00
2023-07-19T02:23:36.285Z,571.00
2023-07-19T02:24:36.318Z,574.00
2023-07-19T02:25:36.391Z,576.00
2023-07-19T02:26:36.437Z,576.00
2023-07-19T02:27:36.491Z,577.00
2023-07-19T02:28:36.528Z,577.00
2023-07-19T02:29:36.579Z,575.00
2023-07-19T02:30:36.665Z,575.00
2023-07-19T02:31:36.781Z,576.00
2023-07-19T02:32:36.860Z,574.00
2023-07-19T02:33:36.823Z,574.00
2023-07-19T02:34:36.851Z,575.00
2023-07-19T02:35:36.893Z,574.00
2023-07-19T02:36:36.964Z,574.00
2023-07-19T02:37:37.024Z,572.00
2023-07-19T02:38:37.063Z,570.00
2023-07-19T02:39:37.142Z,573.00
2023-07-19T02:40:37.198Z,578.00
2023-07-19T02:41:38.208Z,582.00
2023-07-19T02:42:37.315Z,582.00
2023-07-19T02:43:37.373Z,582.00
2023-07-19T02:44:37.436Z,582.00
2023-07-19T02:45:37.474Z,582.00
2023-07-19T02:46:37.584Z,580.00
2023-07-19T02:47:37.654Z,579.00
2023-07-19T02:48:37.668Z,577.00
2023-07-19T02:49:40.561Z,576.00
2023-07-19T02:50:37.714Z,574.00
2023-07-19T02:51:37.704Z,575.00
2023-07-19T02:52:37.687Z,577.00
2023-07-19T02:53:37.708Z,576.00
2023-07-19T02:54:37.644Z,574.00
2023-07-19T02:55:37.674Z,574.00
2023-07-19T02:56:37.677Z,572.00
2023-07-19T02:57:37.655Z,572.00
2023-07-19T02:58:37.654Z,573.00
2023-07-19T02:59:37.631Z,572.00
2023-07-19T03:00:37.684Z,572.00
2023-07-19T03:01:37.636Z,573.00
2023-07-19T03:02:37.706Z,574.00
2023-07-19T03:03:37.698Z,572.00
2023-07-19T03:04:37.588Z,573.00
2023-07-19T03:05:37.579Z,573.00
2023-07-19T03:06:37.600Z,573.00
2023-07-19T03:07:37.579Z,574.00
2023-07-19T03:08:37.559Z,574.00
2023-07-19T03:09:37.572Z,574.00
2023-07-19T03:10:37.579Z,574.00
2023-07-19T03:11:37.524Z,574.00
2023-07-19T03:12:37.577Z,576.00
2023-07-19T03:13:37.521Z,579.00
2023-07-19T03:14:37.532Z,580.00
2023-07-19T03:15:37.540Z,580.00
2023-07-19T03:16:37.531Z,579.00
2023-07-19T03:17:37.514Z,582.00
2023-07-19T03:18:37.501Z,582.00
2023-07-19T03:19:37.497Z,579.00
2023-07-19T03:20:37.512Z,579.00
2023-07-19T03:21:37.480Z,580.00
2023-07-19T03:22:37.480Z,582.00
2023-07-19T03:23:37.499Z,580.00
2023-07-19T03:24:37.477Z,583.00
2023-07-19T03:25:37.466Z,583.00
2023-07-19T03:26:37.465Z,583.00
2023-07-19T03:27:37.488Z,582.00
2023-07-19T03:28:37.547Z,583.00
2023-07-19T03:29:37.660Z,582.00
2023-07-19T03:30:37.728Z,579.00
2023-07-19T03:31:37.714Z,576.00
2023-07-19T03:32:37.870Z,576.00
2023-07-19T03:33:37.869Z,577.00
2023-07-19T03:34:37.900Z,579.00
2023-07-19T03:35:37.986Z,578.00
2023-07-19T03:36:38.025Z,578.00
2023-07-19T03:37:38.065Z,580.00
2023-07-19T03:38:38.126Z,582.00
2023-07-19T03:39:38.222Z,585.00
2023-07-19T03:40:38.258Z,587.00
2023-07-19T03:41:38.329Z,586.00
2023-07-19T03:42:38.398Z,583.00
2023-07-19T03:43:38.456Z,583.00
2023-07-19T03:44:38.483Z,581.00
2023-07-19T03:45:38.567Z,581.00
2023-07-19T03:46:38.738Z,578.00
2023-07-19T03:47:38.721Z,579.00
2023-07-19T03:48:38.756Z,577.00
2023-07-19T03:49:38.846Z,576.00
2023-07-19T03:50:38.871Z,576.00
2023-07-19T03:51:38.963Z,573.00
2023-07-19T03:52:38.960Z,573.00
2023-07-19T03:53:39.037Z,572.00
2023-07-19T03:54:39.097Z,571.00
2023-07-19T03:55:39.138Z,569.00
2023-07-19T03:56:39.219Z,571.00
2023-07-19T03:57:39.300Z,573.00
2023-07-19T03:58:39.348Z,574.00
2023-07-19T03:59:39.404Z,575.00
2023-07-19T04:00:39.456Z,574.00
2023-07-19T04:01:39.585Z,573.00
2023-07-19T04:02:39.648Z,574.00
2023-07-19T04:03:39.701Z,575.00
2023-07-19T04:04:39.736Z,574.00
2023-07-19T04:05:39.807Z,571.00
2023-07-19T04:06:39.834Z,575.00
2023-07-19T04:07:39.908Z,576.00
2023-07-19T04:08:39.992Z,576.00
2023-07-19T04:09:40.001Z,575.00
2023-07-19T04:10:40.069Z,575.00
2023-07-19T04:11:40.189Z,575.00
2023-07-19T04:12:40.222Z,575.00
2023-07-19T04:13:40.274Z,574.00
2023-07-19T04:14:40.423Z,576.00
2023-07-19T04:15:40.386Z,576.00
2023-07-19T04:16:40.533Z,577.00
2023-07-19T04:17:40.547Z,576.00
2023-07-19T04:18:40.671Z,578.00
2023-07-19T04:19:40.642Z,580.00
2023-07-19T04:20:40.694Z,579.00
2023-07-19T04:21:40.775Z,581.00
2023-07-19T04:22:40.866Z,583.00
2023-07-19T04:23:40.867Z,581.00
2023-07-19T04:24:40.955Z,582.00
2023-07-19T04:25:41.021Z,582.00
2023-07-19T04:26:41.090Z,581.00
2023-07-19T04:27:41.136Z,581.00
2023-07-19T04:28:41.209Z,583.00
2023-07-19T04:29:41.267Z,582.00
2023-07-19T04:30:41.353Z,582.00
2023-07-19T04:31:41.371Z,581.00
2023-07-19T04:32:41.549Z,580.00
2023-07-19T04:33:41.521Z,579.00
2023-07-19T04:34:41.581Z,580.00
2023-07-19T04:35:41.617Z,584.00
2023-07-19T04:36:41.696Z,584.00
2023-07-19T04:37:41.791Z,584.00
2023-07-19T04:38:41.823Z,583.00
2023-07-19T04:39:41.906Z,582.00
2023-07-19T04:40:41.945Z,582.00
2023-07-19T04:41:43.321Z,584.00
2023-07-19T04:42:42.030Z,584.00
2023-07-19T04:43:42.109Z,583.00
2023-07-19T04:44:42.181Z,586.00
2023-07-19T04:45:42.214Z,587.00
2023-07-19T04:46:42.356Z,586.00
2023-07-19T04:47:42.385Z,584.00
2023-07-19T04:48:42.414Z,584.00
2023-07-19T04:49:42.478Z,583.00
2023-07-19T04:50:42.546Z,583.00
2023-07-19T04:51:42.585Z,584.00
2023-07-19T04:52:42.675Z,586.00
2023-07-19T04:53:42.683Z,587.00
2023-07-19T04:54:42.752Z,586.00
2023-07-19T04:55:42.864Z,585.00
2023-07-19T04:56:42.920Z,584.00
2023-07-19T04:57:42.964Z,583.00
2023-07-19T04:58:43.009Z,581.00
2023-07-19T04:59:43.082Z,581.00
2023-07-19T05:00:43.147Z,579.00
2023-07-19T05:01:50.697Z,579.00
2023-07-19T05:02:43.223Z,581.00
2023-07-19T05:03:43.177Z,581.00
2023-07-19T05:04:43.168Z,581.00
2023-07-19T05:05:43.137Z,580.00
2023-07-19T05:06:43.159Z,579.00
2023-07-19T05:07:43.162Z,577.00
2023-07-19T05:08:43.132Z,576.00
2023-07-19T05:09:43.139Z,580.00
2023-07-19T05:10:43.123Z,579.00
2023-07-19T05:11:43.110Z,579.00
2023-07-19T05:12:43.125Z,580.00
2023-07-19T05:13:43.131Z,579.00
2023-07-19T05:14:43.092Z,579.00
2023-07-19T05:15:43.108Z,578.00
2023-07-19T05:16:43.131Z,576.00
2023-07-19T05:17:43.154Z,574.00
2023-07-19T05:18:43.079Z,576.00
2023-07-19T05:19:43.152Z,576.00
2023-07-19T05:20:43.243Z,576.00
2023-07-19T05:21:43.275Z,578.00
2023-07-19T05:22:43.395Z,580.00
2023-07-19T05:23:43.411Z,581.00
2023-07-19T05:24:43.487Z,581.00
2023-07-19T05:25:43.571Z,580.00
2023-07-19T05:26:43.637Z,579.00
2023-07-19T05:27:43.666Z,578.00
2023-07-19T05:28:43.726Z,580.00
2023-07-19T05:29:43.804Z,579.00
2023-07-19T05:30:43.849Z,580.00
2023-07-19T05:31:43.987Z,581.00
2023-07-19T05:32:44.082Z,584.00
2023-07-19T05:33:44.058Z,586.00
2023-07-19T05:34:44.112Z,585.00
2023-07-19T05:35:44.206Z,584.00
2023-07-19T05:36:44.234Z,582.00
2023-07-19T05:37:44.330Z,581.00
2023-07-19T05:38:44.367Z,580.00
2023-07-19T05:39:44.432Z,577.00
2023-07-19T05:40:44.496Z,574.00
2023-07-19T05:41:44.577Z,574.00
2023-07-19T05:42:44.602Z,573.00
2023-07-19T05:43:45.808Z,575.00
2023-07-19T05:44:44.732Z,576.00
2023-07-19T05:45:44.824Z,575.00
2023-07-19T05:46:44.879Z,574.00
2023-07-19T05:47:44.958Z,572.00
2023-07-19T05:48:44.998Z,572.00
2023-07-19T05:49:45.082Z,573.00
2023-07-19T05:50:45.127Z,574.00
2023-07-19T05:51:45.204Z,573.00
2023-07-19T05:52:45.250Z,572.00
2023-07-19T05:53:45.309Z,570.00
2023-07-19T05:54:45.616Z,571.00
2023-07-19T05:55:45.455Z,573.00
2023-07-19T05:56:45.490Z,572.00
2023-07-19T05:57:45.559Z,571.00
2023-07-19T05:58:45.642Z,571.00
2023-07-19T05:59:45.704Z,572.00
2023-07-19T06:00:45.796Z,572.00
2023-07-19T06:01:45.953Z,572.00
2023-07-19T06:02:53.552Z,573.00
2023-07-19T06:03:47.013Z,574.00
2023-07-19T06:04:45.948Z,572.00
2023-07-19T06:05:45.866Z,572.00
2023-07-19T06:06:45.881Z,572.00
2023-07-19T06:07:45.842Z,575.00
2023-07-19T06:08:45.871Z,576.00
2023-07-19T06:09:45.853Z,575.00
2023-07-19T06:10:45.830Z,578.00
2023-07-19T06:11:45.855Z,578.00
2023-07-19T06:12:45.833Z,580.00
2023-07-19T06:13:45.892Z,580.00
2023-07-19T06:14:45.958Z,581.00
2023-07-19T06:15:46.110Z,580.00
2023-07-19T06:16:46.088Z,582.00
2023-07-19T06:17:46.155Z,583.00
2023-07-19T06:18:46.273Z,583.00
2023-07-19T06:19:46.276Z,581.00
2023-07-19T06:20:46.356Z,581.00
2023-07-19T06:21:46.424Z,581.00
2023-07-19T06:22:46.516Z,580.00
2023-07-19T06:23:46.560Z,579.00
2023-07-19T06:24:46.615Z,579.00
2023-07-19T06:25:46.671Z,579.00
2023-07-19T06:26:46.720Z,579.00
2023-07-19T06:27:46.817Z,579.00
2023-07-19T06:28:46.875Z,578.00
2023-07-19T06:29:46.899Z,579.00
2023-07-19T06:30:47.012Z,578.00
2023-07-19T06:31:47.132Z,579.00
2023-07-19T06:32:47.131Z,578.00
2023-07-19T06:33:47.168Z,578.00
2023-07-19T06:34:47.230Z,578.00
2023-07-19T06:35:47.304Z,578.00
2023-07-19T06:36:47.360Z,578.00
2023-07-19T06:37:47.422Z,576.00
2023-07-19T06:38:47.493Z,577.00
2023-07-19T06:39:47.589Z,579.00
2023-07-19T06:40:47.605Z,579.00
2023-07-19T06:41:47.647Z,579.00
2023-07-19T06:42:47.749Z,580.00
2023-07-19T06:43:47.797Z,580.00
2023-07-19T06:44:47.824Z,581.00
2023-07-19T06:45:47.890Z,581.00
2023-07-19T06:46:47.978Z,581.00
2023-07-19T06:47:48.046Z,583.00
2023-07-19T06:48:48.120Z,583.00
2023-07-19T06:49:48.151Z,582.00
2023-07-19T06:50:48.189Z,581.00
2023-07-19T06:51:48.279Z,579.00
2023-07-19T06:52:48.320Z,579.00
2023-07-19T06:53:53.013Z,580.00
2023-07-19T06:54:49.373Z,582.00
2023-07-19T06:55:48.376Z,581.00
2023-07-19T06:56:48.408Z,580.00
2023-07-19T06:57:48.398Z,583.00
2023-07-19T06:58:48.351Z,586.00
2023-07-19T06:59:48.352Z,584.00
2023-07-19T07:00:48.364Z,585.00
2023-07-19T07:01:48.359Z,584.00
2023-07-19T07:02:48.411Z,582.00
2023-07-19T07:03:48.352Z,580.00
2023-07-19T07:04:48.287Z,582.00
2023-07-19T07:05:48.369Z,581.00
2023-07-19T07:06:48.435Z,581.00
2023-07-19T07:07:48.466Z,582.00
2023-07-19T07:08:48.526Z,582.00
2023-07-19T07:09:48.660Z,584.00
2023-07-19T07:10:48.675Z,586.00
2023-07-19T07:11:48.725Z,585.00
2023-07-19T07:12:48.729Z,585.00
2023-07-19T07:13:48.816Z,582.00
2023-07-19T07:14:50.963Z,582.00
2023-07-19T07:15:48.906Z,584.00
2023-07-19T07:16:48.990Z,585.00
2023-07-19T07:17:49.177Z,584.00
2023-07-19T07:18:49.057Z,583.00
2023-07-19T07:19:49.107Z,582.00
2023-07-19T07:20:49.197Z,582.00
2023-07-19T07:21:49.253Z,582.00
2023-07-19T07:22:49.317Z,580.00
2023-07-19T07:23:49.339Z,582.00
2023-07-19T07:24:49.384Z,583.00
2023-07-19T07:25:49.427Z,584.00
2023-07-19T07:26:49.484Z,586.00
2023-07-19T07:27:49.504Z,587.00
2023-07-19T07:28:49.595Z,585.00
2023-07-19T07:29:49.607Z,585.00
2023-07-19T07:30:49.706Z,585.00
2023-07-19T07:31:49.707Z,583.00
2023-07-19T07:32:49.806Z,584.00
2023-07-19T07:33:49.820Z,583.00
2023-07-19T07:34:49.845Z,582.00
2023-07-19T07:35:49.915Z,581.00
2023-07-19T07:36:49.954Z,581.00
2023-07-19T07:37:49.977Z,580.00
2023-07-19T07:38:50.028Z,579.00
2023-07-19T07:39:50.090Z,580.00
2023-07-19T07:40:50.118Z,580.00
2023-07-19T07:41:50.172Z,581.00
2023-07-19T07:42:50.226Z,579.00
2023-07-19T07:43:50.298Z,581.00
2023-07-19T07:44:50.329Z,580.00
2023-07-19T07:45:50.368Z,580.00
2023-07-19T07:46:50.487Z,580.00
2023-07-19T07:47:50.508Z,580.00
2023-07-19T07:48:50.509Z,582.00
2023-07-19T07:49:50.544Z,583.00
2023-07-19T07:50:50.608Z,582.00
2023-07-19T07:51:50.649Z,582.00
2023-07-19T07:53:02.379Z,582.00
2023-07-19T07:53:51.730Z,582.00
2023-07-19T07:54:50.719Z,585.00
2023-07-19T07:55:50.685Z,586.00
2023-07-19T07:56:50.691Z,586.00
2023-07-19T07:57:50.700Z,586.00
2023-07-19T07:58:50.676Z,585.00
2023-07-19T07:59:50.656Z,586.00
2023-07-19T08:00:50.728Z,583.00
2023-07-19T08:01:50.651Z,585.00
2023-07-19T08:02:50.723Z,586.00
2023-07-19T08:03:50.668Z,588.00
2023-07-19T08:04:50.629Z,587.00
2023-07-19T08:05:50.682Z,586.00
2023-07-19T08:06:50.720Z,585.00
2023-07-19T08:07:50.767Z,583.00
2023-07-19T08:08:50.842Z,581.00
2023-07-19T08:09:50.887Z,584.00
2023-07-19T08:10:50.936Z,583.00
2023-07-19T08:11:50.980Z,582.00
2023-07-19T08:12:51.046Z,582.00
2023-07-19T08:13:51.070Z,582.00
2023-07-19T08:14:51.123Z,583.00
2023-07-19T08:15:51.185Z,581.00
2023-07-19T08:16:51.288Z,582.00
2023-07-19T08:17:51.319Z,582.00
2023-07-19T08:18:51.324Z,581.00
2023-07-19T08:19:51.419Z,581.00
2023-07-19T08:20:51.422Z,583.00
2023-07-19T08:21:51.489Z,584.00
2023-07-19T08:22:51.553Z,584.00
2023-07-19T08:23:51.596Z,585.00
2023-07-19T08:24:51.638Z,586.00
2023-07-19T08:25:51.683Z,585.00
2023-07-19T08:26:51.760Z,585.00
2023-07-19T08:27:51.764Z,585.00
2023-07-19T08:28:51.812Z,584.00
2023-07-19T08:29:51.932Z,583.00
2023-07-19T08:30:51.992Z,584.00
2023-07-19T08:31:51.939Z,583.00
2023-07-19T08:32:52.093Z,583.00
2023-07-19T08:33:52.077Z,584.00
2023-07-19T08:34:52.093Z,587.00
2023-07-19T08:35:52.172Z,587.00
2023-07-19T08:36:52.171Z,586.00
2023-07-19T08:37:52.225Z,584.00
2023-07-19T08:38:52.247Z,585.00
2023-07-19T08:39:52.290Z,585.00
2023-07-19T08:40:52.306Z,587.00
2023-07-19T08:41:52.360Z,587.00
2023-07-19T08:42:52.374Z,588.00
2023-07-19T08:43:52.419Z,586.00
2023-07-19T08:44:52.457Z,583.00
2023-07-19T08:45:52.595Z,581.00
2023-07-19T08:46:52.566Z,582.00
2023-07-19T08:47:52.544Z,583.00
2023-07-19T08:48:52.596Z,580.00
2023-07-19T08:49:52.673Z,577.00
2023-07-19T08:50:52.659Z,581.00
2023-07-19T08:51:52.688Z,583.00
2023-07-19T08:52:52.747Z,582.00
2023-07-19T08:53:52.786Z,585.00
2023-07-19T08:54:52.814Z,586.00
2023-07-19T08:55:52.868Z,587.00
2023-07-19T08:56:52.970Z,587.00
2023-07-19T08:57:52.907Z,585.00
2023-07-19T08:58:52.940Z,584.00
2023-07-19T08:59:52.992Z,582.00
2023-07-19T09:00:53.039Z,578.00
2023-07-19T09:01:53.089Z,577.00
2023-07-19T09:02:53.182Z,577.00
2023-07-19T09:03:53.185Z,580.00
2023-07-19T09:04:53.151Z,581.00
2023-07-19T09:05:53.269Z,582.00
2023-07-19T09:06:53.248Z,581.00
2023-07-19T09:07:53.297Z,582.00
2023-07-19T09:08:53.343Z,580.00
2023-07-19T09:09:53.364Z,582.00
2023-07-19T09:10:53.405Z,583.00
2023-07-19T09:11:53.494Z,585.00
2023-07-19T09:12:53.511Z,586.00
2023-07-19T09:13:53.542Z,587.00
2023-07-19T09:14:53.611Z,588.00
2023-07-19T09:15:53.654Z,586.00
2023-07-19T09:16:53.683Z,586.00
2023-07-19T09:17:53.793Z,587.00
2023-07-19T09:18:53.914Z,588.00
2023-07-19T09:19:53.831Z,586.00
2023-07-19T09:20:53.897Z,583.00
2023-07-19T09:21:53.913Z,580.00
2023-07-19T09:22:54.047Z,582.00
2023-07-19T09:23:54.022Z,585.00
2023-07-19T09:24:54.052Z,587.00
2023-07-19T09:25:54.094Z,587.00
2023-07-19T09:26:54.196Z,588.00
2023-07-19T09:27:54.212Z,586.00
2023-07-19T09:28:54.252Z,583.00
2023-07-19T09:29:54.279Z,585.00
2023-07-19T09:30:54.327Z,585.00
2023-07-19T09:31:54.465Z,584.00
2023-07-19T09:32:54.426Z,586.00
2023-07-19T09:33:54.461Z,586.00
2023-07-19T09:34:54.494Z,586.00
2023-07-19T09:35:54.545Z,587.00
2023-07-19T09:36:54.560Z,587.00
2023-07-19T09:37:54.610Z,585.00
2023-07-19T09:38:54.795Z,586.00
2023-07-19T09:39:54.668Z,587.00
2023-07-19T09:40:54.701Z,586.00
2023-07-19T09:41:54.747Z,587.00
2023-07-19T09:42:54.771Z,588.00
2023-07-19T09:43:54.787Z,585.00
2023-07-19T09:44:54.880Z,586.00
2023-07-19T09:45:54.872Z,585.00
2023-07-19T09:46:54.881Z,585.00
2023-07-19T09:47:54.967Z,586.00
2023-07-19T09:48:54.956Z,586.00
2023-07-19T09:49:54.961Z,587.00
2023-07-19T09:50:55.000Z,585.00
2023-07-19T09:51:54.993Z,585.00
2023-07-19T09:52:55.027Z,583.00
2023-07-19T09:53:55.028Z,581.00
2023-07-19T09:54:55.086Z,581.00
2023-07-19T09:55:55.065Z,580.00
2023-07-19T09:56:55.059Z,579.00
2023-07-19T09:57:55.074Z,580.00
2023-07-19T09:58:55.079Z,584.00
2023-07-19T09:59:55.107Z,586.00
2023-07-19T10:00:55.112Z,589.00
2023-07-19T10:01:55.155Z,591.00
2023-07-19T10:02:55.174Z,592.00
2023-07-19T10:03:55.115Z,594.00
2023-07-19T10:04:55.120Z,596.00
2023-07-19T10:05:55.203Z,594.00
2023-07-19T10:06:55.114Z,591.00
2023-07-19T10:07:55.129Z,588.00
2023-07-19T10:08:55.131Z,587.00
2023-07-19T10:09:55.134Z,587.00
2023-07-19T10:10:55.125Z,589.00
2023-07-19T10:11:55.144Z,590.00
2023-07-19T10:12:55.153Z,590.00
2023-07-19T10:14:05.940Z,590.00
2023-07-19T10:14:56.127Z,590.00
2023-07-19T10:15:55.122Z,589.00
2023-07-19T10:16:55.134Z,588.00
2023-07-19T10:17:55.207Z,590.00
2023-07-19T10:18:55.095Z,588.00
2023-07-19T10:19:55.088Z,588.00
2023-07-19T10:20:57.269Z,588.00
2023-07-19T10:21:55.124Z,589.00
2023-07-19T10:22:55.207Z,590.00
2023-07-19T10:23:55.088Z,588.00
2023-07-19T10:24:55.057Z,591.00
2023-07-19T10:25:55.050Z,594.00
2023-07-19T10:26:55.049Z,595.00
2023-07-19T10:27:55.065Z,595.00
2023-07-19T10:28:55.079Z,594.00
2023-07-19T10:29:55.019Z,595.00
2023-07-19T10:30:55.062Z,596.00
2023-07-19T10:31:55.014Z,596.00
2023-07-19T10:32:55.044Z,596.00
2023-07-19T10:33:55.146Z,595.00
2023-07-19T10:34:54.997Z,596.00
2023-07-19T10:35:55.031Z,597.00
2023-07-19T10:36:55.010Z,598.00
2023-07-19T10:37:54.986Z,596.00
2023-07-19T10:38:55.005Z,596.00
2023-07-19T10:39:54.977Z,595.00
2023-07-19T10:40:54.947Z,593.00
2023-07-19T10:41:54.954Z,591.00
2023-07-19T10:42:54.958Z,588.00
2023-07-19T10:43:55.169Z,589.00
2023-07-19T10:44:54.931Z,591.00
2023-07-19T10:45:54.966Z,592.00
2023-07-19T10:46:54.940Z,590.00
2023-07-19T10:47:54.970Z,590.00
2023-07-19T10:48:55.009Z,591.00
2023-07-19T10:49:54.929Z,591.00
2023-07-19T10:50:54.868Z,588.00
2023-07-19T10:51:54.907Z,586.00
2023-07-19T10:52:54.876Z,585.00
2023-07-19T10:53:54.890Z,586.00
2023-07-19T10:55:02.142Z,587.00
2023-07-19T10:55:55.865Z,587.00
2023-07-19T10:56:54.881Z,587.00
2023-07-19T10:57:54.865Z,586.00
2023-07-19T10:58:54.851Z,585.00
2023-07-19T10:59:54.844Z,582.00
2023-07-19T11:00:54.871Z,583.00
2023-07-19T11:01:54.801Z,586.00
2023-07-19T11:02:54.935Z,585.00
2023-07-19T11:03:54.892Z,586.00
2023-07-19T11:04:54.953Z,587.00
2023-07-19T11:05:55.021Z,590.00
2023-07-19T11:06:55.069Z,589.00
2023-07-19T11:07:55.137Z,589.00
2023-07-19T11:08:55.204Z,591.00
2023-07-19T11:09:55.244Z,590.00
2023-07-19T11:10:55.357Z,591.00
2023-07-19T11:11:55.410Z,591.00
2023-07-19T11:12:55.433Z,592.00
2023-07-19T11:13:55.509Z,591.00
2023-07-19T11:14:55.553Z,592.00
2023-07-19T11:15:55.643Z,592.00
2023-07-19T11:16:55.720Z,593.00
2023-07-19T11:17:55.783Z,594.00
2023-07-19T11:18:55.825Z,595.00
2023-07-19T11:19:55.865Z,594.00
2023-07-19T11:20:55.962Z,594.00
2023-07-19T11:21:55.994Z,593.00
2023-07-19T11:22:56.092Z,595.00
2023-07-19T11:23:56.101Z,594.00
2023-07-19T11:24:56.199Z,592.00
2023-07-19T11:25:56.210Z,593.00
2023-07-19T11:26:56.273Z,595.00
2023-07-19T11:27:56.324Z,597.00
2023-07-19T11:28:56.392Z,598.00
2023-07-19T11:29:56.460Z,597.00
2023-07-19T11:30:56.500Z,599.00
2023-07-19T11:31:56.544Z,599.00
2023-07-19T11:32:56.703Z,597.00
2023-07-19T11:33:56.759Z,597.00
2023-07-19T11:34:56.826Z,596.00
2023-07-19T11:35:56.834Z,597.00
2023-07-19T11:36:56.862Z,595.00
2023-07-19T11:37:56.947Z,593.00
2023-07-19T11:38:57.001Z,592.00
2023-07-19T11:39:57.060Z,594.00
2023-07-19T11:40:57.134Z,596.00
2023-07-19T11:41:57.180Z,597.00
2023-07-19T11:42:57.260Z,596.00
2023-07-19T11:43:57.314Z,594.00
2023-07-19T11:44:57.371Z,592.00
2023-07-19T11:45:57.443Z,592.00
2023-07-19T11:46:57.497Z,590.00
2023-07-19T11:47:57.585Z,589.00
2023-07-19T11:48:57.699Z,591.00
2023-07-19T11:49:57.693Z,591.00
2023-07-19T11:50:57.727Z,592.00
2023-07-19T11:51:57.790Z,591.00
2023-07-19T11:52:57.889Z,589.00
2023-07-19T11:53:58.083Z,588.00
2023-07-19T11:54:57.971Z,588.00
2023-07-19T11:56:58.053Z,587.00
2023-07-19T11:57:58.050Z,588.00
2023-07-19T11:58:58.060Z,587.00
2023-07-19T11:59:58.046Z,587.00
2023-07-19T12:00:58.064Z,588.00
2023-07-19T12:01:58.028Z,587.00
2023-07-19T12:02:58.137Z,588.00
2023-07-19T12:03:58.074Z,589.00
2023-07-19T12:04:57.998Z,589.00
2023-07-19T12:05:57.993Z,589.00
2023-07-19T12:06:57.965Z,593.00
2023-07-19T12:07:58.001Z,593.00
2023-07-19T12:08:58.019Z,594.00
2023-07-19T12:09:57.973Z,596.00
2023-07-19T12:10:57.943Z,596.00
2023-07-19T12:11:57.967Z,596.00
2023-07-19T12:12:57.951Z,596.00
2023-07-19T12:13:57.957Z,598.00
2023-07-19T12:14:57.909Z,595.00
2023-07-19T12:15:57.923Z,592.00
2023-07-19T12:16:57.977Z,591.00
2023-07-19T12:17:58.009Z,589.00
2023-07-19T12:18:57.925Z,587.00
2023-07-19T12:19:57.915Z,587.00
2023-07-19T12:20:57.932Z,587.00
2023-07-19T12:21:57.901Z,587.00
2023-07-19T12:22:57.970Z,590.00
2023-07-19T12:23:59.374Z,591.00
2023-07-19T12:24:57.898Z,588.00
2023-07-19T12:25:57.848Z,585.00
2023-07-19T12:26:57.875Z,582.00
2023-07-19T12:27:57.890Z,583.00
2023-07-19T12:28:57.912Z,584.00
2023-07-19T12:30:01.272Z,585.00